Orages Valable du: 21-01-2021 10:03 Au: 22-01-2021 06:00 Avertissement pour: Orages Niveau: Jaune info button
Vent Valable du: 21-01-2021 10:03 Au: 22-01-2021 06:00 Avertissement pour: Vent Niveau: Jaune info button

d'avertissement pour Orages more information blitzortung!


Visitez nos sites météorologiques autres:

Template documentation
and downloads

And another site



Rapports METAR proximité

   
EHVK - Volkel Rnlafb, Netherlands
Distance: SO 18 km
Mise à jour: 21-01-2021 09:55
Nuageux  
Nuageux  
   Vent: SSO 27.8 km/h
Vent: SSO 27.8 km/h
Température: 6°C
éolien: 2°C
Point de rosée: 3°C
Humidité: 81%
Baromètre: 991 hPa
Nuageux: Nuageux
visibilité: More than 10 km
Détails des nuages: Peu de nuages 2500 ft,
Nuageux 2900 ft,
Nuageux 3400 ft
EHVK 210855Z AUTO 20015KT 160V240 9999 FEW025 BKN029 BKN034 06/03 Q0991 BLU
EDLV - Niederrhein, Germany
Distance: SE 25 km
Mise à jour: 18-01-2021 23:50
PAS actuel
Nuageux  
Nuageux  
   Vent: SO 14.8 km/h
Vent: SO 14.8 km/h
Température: 6°C
éolien: 3°C
Point de rosée: 4°C
Humidité: 87%
Baromètre: 1017 hPa
Nuageux: Nuageux
visibilité: More than 10 km
Détails des nuages: Nuageux 1400 ft
EDLV 182250Z 22008KT 9999 BKN014 06/04 Q1017
EHDL - Deelen Rnlafb, Netherlands
Distance: N 35 km
Mise à jour: 21-01-2021 09:55
Claires  
Claires  
   Vent: SSO 24.1 km/h
Vent: SSO 24.1 km/h
Température: 6°C
éolien: 2°C
Point de rosée: 2°C
Humidité: 76%
Baromètre: 990 hPa
Nuageux: Claires
visibilité: More than 10 km
Détails des nuages: Claires
EHDL 210855Z AUTO 21013KT 140V250 9999 NCD 06/02 Q0990 BLU
EHEH - Eindhoven Rnlafb, Netherlands
Distance: SO 48 km
Mise à jour: 21-01-2021 09:55
Nuageux  
Nuageux  
   Vent: SSO 24.1 km/h
Vent: SSO 24.1 km/h
Température: 7°C
éolien: 3°C
Point de rosée: 3°C
Humidité: 76%
Baromètre: 992 hPa
Nuageux: Nuageux
visibilité: More than 10 km
Détails des nuages: Peu de nuages 2100 ft,
Nuageux 2900 ft,
Nuageux 3300 ft
EHEH 210855Z AUTO 20013KT 170V230 9999 FEW021 BKN029 OVC033 07/03 Q0992 BLU NOSIG
EHGR - Gilze-Rijen Rnla, Netherlands
Distance: OSO 70 km
Mise à jour: 21-01-2021 09:55
Partiellement nuageux  
Partiellement nuageux  
   Vent: SSO 25.9 km/h
Vent: SSO 25.9 km/h
Température: 6°C
éolien: 2°C
Point de rosée: 3°C
Humidité: 81%
Baromètre: 991 hPa
Nuageux: Partiellement nuageux
visibilité: More than 10 km
Détails des nuages: Partiellement nuageux 3000 ft
EHGR 210855Z AUTO 20014KT 160V260 9999 SCT030 06/03 Q0991 BLU TEMPO 21016G26KT
EBBL - Kleine-Brogel(Ba, Belgium
Distance: SSO 71 km
Mise à jour: 20-01-2021 19:55
PAS actuel
Nuageux  
Nuageux  
   Vent: Sud 9.3 km/h
Vent: Sud 9.3 km/h
Température: 9°C
éolien: 8°C
Point de rosée: 2°C
Humidité: 62%
Baromètre: 994 hPa
Nuageux: Nuageux
visibilité: More than 10 km
Détails des nuages: Partiellement nuageux 14000 ft,
Nuageux 23000 ft
EBBL 201855Z AUTO 18005KT 9999 SCT140/// BKN230/// 09/02 Q0994 BLU

Script développé par  Saratoga-weather.org Adapté pour le modèle par  Weerstation Leuven

Équipement que nous utilisons:

Station de Météo
Davis VUE

Davis VUE